»·PEaware :: TEXAN16 KRND-KRND

TEXAN16 :: KRND-KRND

FLIGHT INFORMATION

Flight Status: Arrived
Operator: Unknown
More flights by this operator :: More flights under this callsign
Pilot: Indie I. (23337)
Aircraft: BEECH AIRCRAFT T-6A TEXAN
(TEX2)
More flights by this aircraft type
Origin: KRND Randolph AFB
United States
Destination: KRND Randolph AFB
United States
More flights between these airports :: More routes between these airports
Route: KRND KRND
File this flight plan on PilotEdge
Remarks: pattern only
Altitude:
(Current/Filed)
1,800ft
Speed:
(Current/Filed)
200kts
Departed: 19-Aug-20 12:51 PM
Arrived: 19-Aug-20 01:55 PM
Distance/Time
Traveled:
1nm/1:04
Distance/Time
To Go:
Arrived

Flight Plot

Page will automatically refresh every two minutes.

Flight plan parsing failed; only flown route is shown


Map Options




Map Legend


Flown Route
Filed Route
Departure Airport
Arrival Airport
Navaid (VOR, NDB)
Fix

Horizontal Profiles

Position Reports

Time Latitude Longitude Heading Altitude Ground
Speed
19-Aug-20 12:49 29.545744 -98.301990 120 1105ft 119kts
19-Aug-20 12:50 29.518345 -98.282093 148 1239ft 167kts
19-Aug-20 12:51 29.492101 -98.301782 325 1800ft 210kts
19-Aug-20 12:52 29.542520 -98.338390 326 1853ft 220kts
19-Aug-20 12:53 29.550597 -98.303423 147 1776ft 218kts
19-Aug-20 12:54 29.523372 -98.306194 328 1708ft 157kts
19-Aug-20 12:55 29.544363 -98.300547 131 1099ft 117kts
19-Aug-20 12:56 29.515129 -98.279943 148 1281ft 187kts
19-Aug-20 12:57 29.499678 -98.307207 324 1949ft 206kts
19-Aug-20 12:58 29.550592 -98.344549 334 1844ft 221kts
19-Aug-20 12:59 29.543563 -98.298735 147 1763ft 221kts
19-Aug-20 13:00 29.527490 -98.308565 327 1863ft 136kts
19-Aug-20 13:01 29.539554 -98.296365 147 968ft 117kts
19-Aug-20 13:02 29.507274 -98.274531 149 1334ft 188kts
19-Aug-20 13:03 29.508937 -98.315456 328 2019ft 215kts
19-Aug-20 13:04 29.561020 -98.352159 327 1795ft 211kts
19-Aug-20 13:05 29.586776 -98.329531 128 1233ft 173kts
19-Aug-20 13:06 29.554396 -98.306013 149 1068ft 115kts
19-Aug-20 13:08 29.528640 -98.289262 150 788ft 111kts
19-Aug-20 13:09 29.516628 -98.297491 333 1715ft 177kts
19-Aug-20 13:10 29.545980 -98.301107 125 1276ft 125kts
19-Aug-20 13:11 29.517397 -98.281366 148 1378ft 172kts
19-Aug-20 13:12 29.536117 -98.309317 329 1669ft 135kts
19-Aug-20 13:13 29.533107 -98.292079 150 772ft 97kts
19-Aug-20 13:14 29.495290 -98.277125 243 1435ft 231kts
19-Aug-20 13:15 29.525723 -98.329406 325 1752ft 216kts
19-Aug-20 13:16 29.576892 -98.361006 4 1454ft 194kts
19-Aug-20 13:17 29.569822 -98.329438 210 1314ft 165kts
19-Aug-20 13:18 29.520752 -98.318628 151 1292ft 211kts
19-Aug-20 13:19 29.487040 -98.330598 324 1748ft 219kts
19-Aug-20 13:20 29.544736 -98.339994 324 1876ft 232kts
19-Aug-20 13:21 29.546741 -98.300867 147 1709ft 217kts
19-Aug-20 13:22 29.527874 -98.307796 330 1657ft 145kts
19-Aug-20 13:23 29.539605 -98.296318 148 915ft 118kts
19-Aug-20 13:24 29.506212 -98.273100 153 1426ft 211kts
19-Aug-20 13:25 29.514577 -98.318573 327 1864ft 218kts
19-Aug-20 13:25 29.557800 -98.348394 329 1741ft 210kts
19-Aug-20 13:26 29.588298 -98.334114 106 1294ft 168kts
19-Aug-20 13:28 29.552726 -98.304863 149 1167ft 119kts
19-Aug-20 13:28 29.529697 -98.289827 149 765ft 77kts
19-Aug-20 13:29 29.491383 -98.286902 234 1861ft 220kts
19-Aug-20 13:30 29.527228 -98.327099 324 1876ft 212kts
19-Aug-20 13:31 29.565469 -98.318129 103 1815ft 215kts
19-Aug-20 13:32 29.516249 -98.292945 239 1779ft 189kts
19-Aug-20 13:33 29.542785 -98.311804 70 1629ft 122kts
19-Aug-20 13:34 29.527082 -98.287944 149 827ft 116kts
19-Aug-20 13:35 29.529481 -98.304798 326 1728ft 163kts
19-Aug-20 13:36 29.538527 -98.295585 150 865ft 115kts
19-Aug-20 13:37 29.505589 -98.274820 173 1409ft 185kts
19-Aug-20 13:38 29.513763 -98.317550 328 1824ft 213kts
19-Aug-20 13:39 29.564241 -98.337203 52 1771ft 219kts
19-Aug-20 13:40 29.529077 -98.289788 152 1803ft 215kts
19-Aug-20 13:41 29.543466 -98.310292 35 1548ft 129kts
19-Aug-20 13:42 29.525366 -98.286921 150 785ft 106kts
19-Aug-20 13:43 29.522982 -98.300902 327 1797ft 148kts
19-Aug-20 13:44 29.537869 -98.295225 150 910ft 121kts
19-Aug-20 13:45 29.506743 -98.278934 217 1696ft 183kts
19-Aug-20 13:46 29.536482 -98.309434 329 1741ft 135kts
19-Aug-20 13:47 29.531568 -98.291030 151 770ft 88kts
19-Aug-20 13:48 29.498673 -98.280547 235 1291ft 189kts
19-Aug-20 13:49 29.526675 -98.326973 326 1860ft 223kts
19-Aug-20 13:50 29.563666 -98.316739 105 1838ft 214kts
19-Aug-20 13:51 29.522996 -98.302169 318 1644ft 173kts
19-Aug-20 13:52 29.538430 -98.295888 143 945ft 117kts
19-Aug-20 13:53 29.520867 -98.283775 151 765ft 61kts
19-Aug-20 13:54 29.519078 -98.280399 337 787ft 36kts

Navigation Log

Ident Type
Flight plan parsing failed, navigation log unavailable